createdAt,value
2023-02-19T00:01:38.731Z,100893.19
2023-02-19T00:04:08.373Z,100892.41
2023-02-19T00:06:36.618Z,100895.94
2023-02-19T00:09:04.199Z,100900.25
2023-02-19T00:11:33.305Z,100907.16
2023-02-19T00:14:02.578Z,100902.03
2023-02-19T00:16:33.740Z,100902.19
2023-02-19T00:19:02.515Z,100885.56
2023-02-19T00:21:30.501Z,100879.47
2023-02-19T00:23:59.992Z,100882.00
2023-02-19T00:26:27.594Z,100885.69
2023-02-19T00:28:55.836Z,100885.66
2023-02-19T00:31:35.062Z,100873.50
2023-02-19T00:34:03.468Z,100873.56
2023-02-19T00:36:31.860Z,100868.31
2023-02-19T00:38:59.093Z,100871.78
2023-02-19T00:41:26.539Z,100872.69
2023-02-19T00:43:56.147Z,100874.44
2023-02-19T00:46:35.731Z,100869.06
2023-02-19T00:49:03.132Z,100867.25
2023-02-19T00:51:32.858Z,100863.88
2023-02-19T00:54:00.318Z,100852.50
2023-02-19T00:56:27.578Z,100853.41
2023-02-19T00:58:55.178Z,100852.53
2023-02-19T01:01:22.725Z,100850.75
2023-02-19T01:03:50.390Z,100848.22
2023-02-19T01:06:20.178Z,100844.88
2023-02-19T01:08:47.459Z,100838.88
2023-02-19T01:11:15.349Z,100836.09
2023-02-19T01:13:43.441Z,100832.78
2023-02-19T01:16:19.379Z,100818.69
2023-02-19T01:18:47.805Z,100805.63
2023-02-19T01:21:17.206Z,100792.59
2023-02-19T01:23:44.440Z,100789.09
2023-02-19T01:26:14.810Z,100792.00
2023-02-19T01:28:42.219Z,100799.00
2023-02-19T01:31:15.300Z,100798.94
2023-02-19T01:33:52.072Z,100797.47
2023-02-19T01:36:19.596Z,100794.66
2023-02-19T01:38:47.243Z,100789.44
2023-02-19T01:41:17.281Z,100794.63
2023-02-19T01:44:12.276Z,100796.34
2023-02-19T01:46:41.284Z,100792.09
2023-02-19T01:49:11.525Z,100788.69
2023-02-19T01:51:48.295Z,100782.44
2023-02-19T01:54:17.978Z,100787.66
2023-02-19T01:56:46.949Z,100785.00
2023-02-19T01:59:14.332Z,100777.31
2023-02-19T02:01:41.922Z,100777.22
2023-02-19T02:04:11.882Z,100767.66
2023-02-19T02:06:53.080Z,100767.59
2023-02-19T02:09:43.915Z,100765.78
2023-02-19T02:12:12.691Z,100772.78
2023-02-19T02:14:43.212Z,100759.69
2023-02-19T02:17:25.273Z,100770.03
2023-02-19T02:20:22.357Z,100762.25
2023-02-19T02:22:56.527Z,100764.97
2023-02-19T02:25:39.392Z,100755.38
2023-02-19T02:28:34.554Z,100749.22
2023-02-19T02:31:20.080Z,100753.53
2023-02-19T02:34:04.447Z,100745.69
2023-02-19T02:36:37.664Z,100741.53
2023-02-19T02:39:08.447Z,100742.44
2023-02-19T02:41:35.749Z,100742.75
2023-02-19T02:44:02.951Z,100736.03
2023-02-19T02:46:34.419Z,100740.34
2023-02-19T02:49:09.691Z,100750.75
2023-02-19T02:51:43.694Z,100738.63
2023-02-19T02:54:37.493Z,100742.13
2023-02-19T02:57:04.903Z,100742.19
2023-02-19T02:59:37.439Z,100733.50
2023-02-19T03:02:11.750Z,100744.00
2023-02-19T03:05:01.560Z,100741.06
2023-02-19T03:07:34.193Z,100739.78
2023-02-19T03:10:03.421Z,100738.13
2023-02-19T03:12:49.342Z,100741.81
2023-02-19T03:15:36.158Z,100739.41
2023-02-19T03:18:25.445Z,100742.31
2023-02-19T03:20:53.554Z,100752.78
2023-02-19T03:23:21.545Z,100759.81
2023-02-19T03:26:03.896Z,100750.34
2023-02-19T03:28:52.487Z,100752.91
2023-02-19T03:31:22.062Z,100756.56
2023-02-19T03:33:53.108Z,100763.44
2023-02-19T03:36:25.862Z,100764.34
2023-02-19T03:39:03.429Z,100773.19
2023-02-19T03:41:53.427Z,100770.56
2023-02-19T03:44:48.121Z,100772.56
2023-02-19T03:47:30.890Z,100772.84
2023-02-19T03:50:22.019Z,100777.31
2023-02-19T03:53:10.263Z,100783.38
2023-02-19T03:55:47.254Z,100785.16
2023-02-19T03:58:24.682Z,100794.75
2023-02-19T04:01:29.896Z,100805.88
2023-02-19T04:04:20.376Z,100806.97
2023-02-19T04:06:52.988Z,100802.66
2023-02-19T04:09:25.046Z,100800.00
2023-02-19T04:11:53.395Z,100803.47
2023-02-19T04:14:40.758Z,100813.88
2023-02-19T04:17:20.673Z,100825.28
2023-02-19T04:19:49.093Z,100836.63
2023-02-19T04:22:17.906Z,100823.69
2023-02-19T04:24:50.573Z,100827.16
2023-02-19T04:27:18.160Z,100836.72
2023-02-19T04:29:45.429Z,100829.81
2023-02-19T04:32:13.714Z,100844.69
2023-02-19T04:34:41.109Z,100834.31
2023-02-19T04:37:08.411Z,100837.81
2023-02-19T04:39:35.946Z,100842.13
2023-02-19T04:42:03.313Z,100848.19
2023-02-19T04:44:30.506Z,100841.19
2023-02-19T04:46:57.741Z,100846.47
2023-02-19T04:49:24.968Z,100855.91
2023-02-19T04:51:52.175Z,100850.72
2023-02-19T04:54:19.428Z,100850.75
2023-02-19T04:56:46.643Z,100857.72
2023-02-19T04:59:14.201Z,100857.66
2023-02-19T05:01:41.383Z,100860.31
2023-02-19T05:04:08.803Z,100853.41
2023-02-19T05:06:36.066Z,100856.06
2023-02-19T05:09:03.376Z,100861.28
2023-02-19T05:11:30.696Z,100874.28
2023-02-19T05:13:58.120Z,100869.13
2023-02-19T05:16:25.384Z,100866.47
2023-02-19T05:18:52.656Z,100864.72
2023-02-19T05:21:19.891Z,100863.88
2023-02-19T05:23:47.097Z,100867.38
2023-02-19T05:26:19.846Z,100867.34
2023-02-19T05:28:49.019Z,100865.59
2023-02-19T05:31:16.585Z,100870.72
2023-02-19T05:33:44.424Z,100872.50
2023-02-19T05:36:13.029Z,100878.63
2023-02-19T05:38:41.031Z,100869.03
2023-02-19T05:41:16.454Z,100874.22
2023-02-19T05:43:45.390Z,100868.19
2023-02-19T05:46:14.478Z,100872.50
2023-02-19T05:48:41.817Z,100871.72
2023-02-19T05:51:11.578Z,100873.41
2023-02-19T05:53:39.438Z,100880.28
2023-02-19T05:56:37.900Z,100886.34
2023-02-19T05:59:08.492Z,100894.97
2023-02-19T06:01:36.049Z,100898.44
2023-02-19T06:04:03.686Z,100895.94
2023-02-19T06:06:31.004Z,100899.28
2023-02-19T06:08:58.316Z,100895.78
2023-02-19T06:11:26.045Z,100894.91
2023-02-19T06:13:53.231Z,100906.19
2023-02-19T06:16:21.943Z,100902.66
2023-02-19T06:18:49.552Z,100906.19
2023-02-19T06:21:17.392Z,100910.50
2023-02-19T06:23:45.016Z,100908.72
2023-02-19T06:26:21.150Z,100916.50
2023-02-19T06:28:50.080Z,100916.47
2023-02-19T06:31:18.363Z,100926.09
2023-02-19T06:33:46.136Z,100926.91
2023-02-19T06:36:17.510Z,100920.81
2023-02-19T06:38:45.287Z,100930.34
2023-02-19T06:41:13.892Z,100926.84
2023-02-19T06:43:41.358Z,100933.78
2023-02-19T06:46:09.175Z,100938.97
2023-02-19T06:48:36.586Z,100961.63
2023-02-19T06:51:04.099Z,100968.53
2023-02-19T06:53:31.391Z,100971.97
2023-02-19T06:55:59.278Z,100971.97
2023-02-19T06:58:26.773Z,100978.88
2023-02-19T07:00:54.372Z,100981.44
2023-02-19T07:03:21.829Z,100986.75
2023-02-19T07:05:49.336Z,100994.59
2023-02-19T07:08:19.547Z,100998.94
2023-02-19T07:10:46.854Z,100993.69
2023-02-19T07:13:14.076Z,101004.97
2023-02-19T07:15:41.267Z,101008.47
2023-02-19T07:18:10.455Z,101009.28
2023-02-19T07:20:38.126Z,101016.22
2023-02-19T07:23:05.314Z,101019.69
2023-02-19T07:25:32.539Z,101024.81
2023-02-19T07:27:59.799Z,101018.72
2023-02-19T07:30:29.464Z,101026.53
2023-02-19T07:32:56.748Z,101027.31
2023-02-19T07:35:23.945Z,101035.94
2023-02-19T07:37:51.191Z,101039.47
2023-02-19T07:40:18.454Z,101042.06
2023-02-19T07:42:45.718Z,101038.53
2023-02-19T07:45:12.891Z,101049.00
2023-02-19T07:47:40.109Z,101049.03
2023-02-19T07:50:07.683Z,101057.78
2023-02-19T07:52:34.955Z,101060.34
2023-02-19T07:55:02.171Z,101063.84
2023-02-19T07:57:31.171Z,101069.06
2023-02-19T07:59:59.008Z,101086.38
2023-02-19T08:02:45.404Z,101081.13
2023-02-19T08:05:14.857Z,101091.47
2023-02-19T08:07:42.065Z,101095.84
2023-02-19T08:10:27.645Z,101102.78
2023-02-19T08:13:18.226Z,101098.34
2023-02-19T08:15:46.496Z,101110.53
2023-02-19T08:18:14.833Z,101118.25
2023-02-19T08:20:42.430Z,101119.22
2023-02-19T08:23:09.932Z,101124.41
2023-02-19T08:25:37.658Z,101120.94
2023-02-19T08:28:05.505Z,101120.00
2023-02-19T08:30:34.748Z,101139.13
2023-02-19T08:33:02.479Z,101146.09
2023-02-19T08:35:30.206Z,101152.09
2023-02-19T08:37:58.687Z,101149.44
2023-02-19T08:40:26.772Z,101159.72
2023-02-19T08:42:54.163Z,101170.97
2023-02-19T08:45:21.430Z,101174.44
2023-02-19T08:47:48.583Z,101169.97
2023-02-19T08:50:15.795Z,101171.72
2023-02-19T08:52:43.013Z,101175.13
2023-02-19T08:55:10.462Z,101177.75
2023-02-19T08:57:38.191Z,101187.41
2023-02-19T09:00:06.847Z,101179.44
2023-02-19T09:02:34.539Z,101181.91
2023-02-19T09:05:01.838Z,101182.06
2023-02-19T09:07:29.134Z,101189.06
2023-02-19T09:09:56.339Z,101191.72
2023-02-19T09:12:24.445Z,101191.56
2023-02-19T09:14:51.657Z,101191.59
2023-02-19T09:17:19.068Z,101183.56
2023-02-19T09:19:46.329Z,101190.59
2023-02-19T09:22:13.745Z,101194.00
2023-02-19T09:24:40.976Z,101200.16
2023-02-19T09:27:08.160Z,101203.75
2023-02-19T09:29:38.506Z,101199.19
2023-02-19T09:32:06.061Z,101208.63
2023-02-19T09:34:33.360Z,101220.78
2023-02-19T09:37:00.770Z,101220.72
2023-02-19T09:39:28.113Z,101234.75
2023-02-19T09:41:59.150Z,101228.63
2023-02-19T09:44:39.650Z,101232.72
2023-02-19T09:47:21.815Z,101235.25
2023-02-19T09:49:52.124Z,101231.59
2023-02-19T09:52:32.926Z,101237.84
2023-02-19T09:55:03.444Z,101243.94
2023-02-19T09:57:33.539Z,101247.22
2023-02-19T10:00:06.142Z,101254.28
2023-02-19T10:02:33.449Z,101241.84
2023-02-19T10:05:01.656Z,101254.13
2023-02-19T10:07:46.436Z,101252.19
2023-02-19T10:10:13.597Z,101260.13
2023-02-19T10:12:50.528Z,101259.03
2023-02-19T10:15:25.320Z,101267.63
2023-02-19T10:17:52.745Z,101279.25
2023-02-19T10:20:26.616Z,101277.84
2023-02-19T10:23:07.451Z,101281.88
2023-02-19T10:25:42.437Z,101294.09
2023-02-19T10:28:19.261Z,101297.44
2023-02-19T10:30:56.718Z,101294.84
2023-02-19T10:33:25.797Z,101306.53
2023-02-19T10:36:15.898Z,101309.19
2023-02-19T10:38:47.769Z,101319.44
2023-02-19T10:41:17.733Z,101321.94
2023-02-19T10:43:57.847Z,101311.53
2023-02-19T10:46:35.157Z,101312.84
2023-02-19T10:49:05.273Z,101325.09
2023-02-19T10:51:38.037Z,101338.34
2023-02-19T10:54:18.155Z,101334.31
2023-02-19T10:56:46.026Z,101328.19
2023-02-19T10:59:31.431Z,101347.28
2023-02-19T11:02:00.801Z,101339.03
2023-02-19T11:04:34.039Z,101350.59
2023-02-19T11:07:18.948Z,101360.19
2023-02-19T11:09:47.725Z,101366.38
2023-02-19T11:12:33.441Z,101364.88
2023-02-19T11:15:24.109Z,101373.56
2023-02-19T11:18:15.412Z,101378.72
2023-02-19T11:20:57.427Z,101380.41
2023-02-19T11:23:37.428Z,101378.63
2023-02-19T11:26:08.210Z,101369.09
2023-02-19T11:28:40.580Z,101374.22
2023-02-19T11:31:19.868Z,101370.47
2023-02-19T11:34:14.564Z,101381.59
2023-02-19T11:36:42.662Z,101388.75
2023-02-19T11:39:20.173Z,101395.66
2023-02-19T11:42:12.721Z,101396.47
2023-02-19T11:44:51.883Z,101388.88
2023-02-19T11:47:50.135Z,101389.09
2023-02-19T11:50:23.193Z,101385.97
2023-02-19T11:53:14.552Z,101387.78
2023-02-19T11:55:59.299Z,101384.59
2023-02-19T11:58:46.720Z,101383.75
2023-02-19T12:01:47.150Z,101403.06
2023-02-19T12:04:39.468Z,101410.84
2023-02-19T12:07:18.883Z,101397.53
2023-02-19T12:09:52.851Z,101397.38
2023-02-19T12:12:44.648Z,101395.44
2023-02-19T12:15:41.298Z,101404.19
2023-02-19T12:18:37.561Z,101405.81
2023-02-19T12:21:37.241Z,101401.28
2023-02-19T12:24:11.824Z,101405.28
2023-02-19T12:27:12.618Z,101410.53
2023-02-19T12:29:50.403Z,101411.56
2023-02-19T12:32:36.177Z,101427.41
2023-02-19T12:35:18.192Z,101419.50
2023-02-19T12:38:00.405Z,101431.47
2023-02-19T12:41:02.571Z,101432.66
2023-02-19T12:43:31.364Z,101428.34
2023-02-19T12:46:15.542Z,101416.84
2023-02-19T12:49:00.151Z,101431.91
2023-02-19T12:51:39.801Z,101435.50
2023-02-19T12:54:26.974Z,101445.88
2023-02-19T12:57:06.849Z,101443.94
2023-02-19T13:00:02.809Z,101448.22
2023-02-19T13:02:40.412Z,101450.78
2023-02-19T13:05:23.061Z,101453.50
2023-02-19T13:08:14.409Z,101459.78
2023-02-19T13:10:56.751Z,101462.28
2023-02-19T13:13:47.245Z,101477.94
2023-02-19T13:16:18.926Z,101471.13
2023-02-19T13:18:51.177Z,101469.59
2023-02-19T13:21:40.044Z,101469.91
2023-02-19T13:24:11.836Z,101474.53
2023-02-19T13:27:17.378Z,101477.34
2023-02-19T13:30:21.932Z,101474.88
2023-02-19T13:33:21.311Z,101472.28
2023-02-19T13:36:13.426Z,101468.81
2023-02-19T13:38:45.639Z,101469.59
2023-02-19T13:41:39.616Z,101473.69
2023-02-19T13:44:16.390Z,101468.28
2023-02-19T13:46:45.746Z,101463.06
2023-02-19T13:49:29.290Z,101478.97
2023-02-19T13:51:58.622Z,101482.63
2023-02-19T13:54:27.802Z,101476.66
2023-02-19T13:57:22.679Z,101482.00
2023-02-19T14:00:00.066Z,101486.44
2023-02-19T14:02:32.821Z,101479.47
2023-02-19T14:05:10.862Z,101493.38
2023-02-19T14:07:50.193Z,101503.97
2023-02-19T14:10:50.443Z,101510.13
2023-02-19T14:13:51.819Z,101515.31
2023-02-19T14:17:04.786Z,101512.63
2023-02-19T14:19:50.181Z,101521.34
2023-02-19T14:22:48.764Z,101517.00
2023-02-19T14:25:30.605Z,101513.50
2023-02-19T14:28:13.874Z,101505.69
2023-02-19T14:30:57.751Z,101514.47
2023-02-19T14:33:31.836Z,101521.56
2023-02-19T14:36:37.552Z,101519.75
2023-02-19T14:39:10.609Z,101508.41
2023-02-19T14:41:40.520Z,101516.19
2023-02-19T14:44:15.059Z,101511.75
2023-02-19T14:47:14.794Z,101517.84
2023-02-19T14:49:47.801Z,101530.88
2023-02-19T14:52:36.648Z,101522.19
2023-02-19T14:55:10.708Z,101538.00
2023-02-19T14:57:41.351Z,101545.00
2023-02-19T15:00:25.824Z,101538.88
2023-02-19T15:02:58.571Z,101537.19
2023-02-19T15:05:38.619Z,101540.75
2023-02-19T15:08:11.476Z,101547.78
2023-02-19T15:10:39.338Z,101542.56
2023-02-19T15:13:08.347Z,101547.78
2023-02-19T15:15:43.170Z,101542.59
2023-02-19T15:18:20.103Z,101536.50
2023-02-19T15:20:47.542Z,101542.66
2023-02-19T15:23:23.148Z,101544.44
2023-02-19T15:25:51.233Z,101553.16
2023-02-19T15:28:25.888Z,101542.72
2023-02-19T15:31:03.287Z,101541.84
2023-02-19T15:33:32.951Z,101542.72
2023-02-19T15:36:05.451Z,101549.72
2023-02-19T15:38:35.893Z,101545.38
2023-02-19T15:41:03.461Z,101549.72
2023-02-19T15:43:49.851Z,101541.03
2023-02-19T15:46:24.110Z,101551.50
2023-02-19T15:48:56.473Z,101560.22
2023-02-19T15:51:46.895Z,101574.19
2023-02-19T15:54:49.045Z,101579.38
2023-02-19T15:57:22.308Z,101562.00
2023-02-19T15:59:58.753Z,101572.44
2023-02-19T16:02:27.703Z,101563.72
2023-02-19T16:04:55.444Z,101576.81
2023-02-19T16:07:32.018Z,101582.03
2023-02-19T16:10:23.000Z,101598.56
2023-02-19T16:13:01.608Z,101602.91
2023-02-19T16:15:31.375Z,101600.31
2023-02-19T16:17:59.673Z,101599.44
2023-02-19T16:20:34.879Z,101599.44
2023-02-19T16:23:13.075Z,101606.41
2023-02-19T16:25:44.085Z,101607.28
2023-02-19T16:28:20.321Z,101607.25
2023-02-19T16:30:55.267Z,101620.34
2023-02-19T16:33:36.656Z,101619.44
2023-02-19T16:36:41.479Z,101620.31
2023-02-19T16:39:08.612Z,101631.59
2023-02-19T16:41:47.680Z,101631.59
2023-02-19T16:44:32.919Z,101633.31
2023-02-19T16:47:06.321Z,101635.88
2023-02-19T16:49:33.831Z,101630.69
2023-02-19T16:52:04.099Z,101642.84
2023-02-19T16:54:31.844Z,101635.00
2023-02-19T16:56:59.157Z,101635.00
2023-02-19T16:59:26.390Z,101648.84
2023-02-19T17:01:53.940Z,101642.75
2023-02-19T17:04:21.329Z,101652.28
2023-02-19T17:06:48.743Z,101654.88
2023-02-19T17:09:15.966Z,101645.34
2023-02-19T17:11:43.487Z,101650.56
2023-02-19T17:14:11.164Z,101650.53
2023-02-19T17:16:41.209Z,101644.41
2023-02-19T17:19:18.810Z,101651.38
2023-02-19T17:21:46.710Z,101653.03
2023-02-19T17:24:14.094Z,101640.88
2023-02-19T17:26:41.486Z,101639.13
2023-02-19T17:29:13.934Z,101650.41
2023-02-19T17:31:41.327Z,101668.63
2023-02-19T17:34:08.731Z,101671.22
2023-02-19T17:36:37.950Z,101677.25
2023-02-19T17:39:08.777Z,101671.16
2023-02-19T17:41:36.046Z,101672.03
2023-02-19T17:44:03.241Z,101676.38
2023-02-19T17:46:30.595Z,101665.06
2023-02-19T17:48:57.966Z,101671.97
2023-02-19T17:51:25.229Z,101671.09
2023-02-19T17:53:52.413Z,101671.09
2023-02-19T17:56:22.250Z,101660.66
2023-02-19T17:58:51.052Z,101678.88
2023-02-19T18:01:21.028Z,101678.88
2023-02-19T18:03:48.304Z,101684.94
2023-02-19T18:06:15.541Z,101682.34
2023-02-19T18:08:50.739Z,101693.63
2023-02-19T18:11:18.684Z,101683.19
2023-02-19T18:13:46.204Z,101689.25
2023-02-19T18:16:15.634Z,101692.72
2023-02-19T18:18:43.823Z,101697.88
2023-02-19T18:21:18.245Z,101698.75
2023-02-19T18:23:47.222Z,101707.44
2023-02-19T18:26:20.177Z,101717.81
2023-02-19T18:28:47.373Z,101713.41
2023-02-19T18:31:14.905Z,101709.03
2023-02-19T18:33:42.740Z,101707.31
2023-02-19T18:36:13.545Z,101708.16
2023-02-19T18:38:40.834Z,101715.06
2023-02-19T18:41:14.658Z,101711.59
2023-02-19T18:43:42.465Z,101715.91
2023-02-19T18:46:10.783Z,101716.75
2023-02-19T18:48:41.211Z,101717.63
2023-02-19T18:51:10.936Z,101721.91
2023-02-19T18:53:38.466Z,101714.97
2023-02-19T18:56:05.987Z,101719.31
2023-02-19T18:58:33.255Z,101724.50
2023-02-19T19:01:00.542Z,101725.38
2023-02-19T19:03:30.871Z,101727.09
2023-02-19T19:05:58.522Z,101714.03
2023-02-19T19:08:26.293Z,101720.97
2023-02-19T19:10:53.474Z,101723.56
2023-02-19T19:13:20.984Z,101720.06
2023-02-19T19:15:51.663Z,101718.34
2023-02-19T19:18:18.989Z,101710.53
2023-02-19T19:23:30.430Z,101720.06
2023-02-19T19:25:58.196Z,101707.91
2023-02-19T19:28:27.668Z,101714.00
2023-02-19T19:30:54.946Z,101710.50
2023-02-19T19:33:22.388Z,101712.25
2023-02-19T19:35:50.003Z,101701.84
2023-02-19T19:38:17.543Z,101702.69
2023-02-19T19:40:45.247Z,101705.28
2023-02-19T19:43:13.105Z,101703.50
2023-02-19T19:45:40.344Z,101698.28
2023-02-19T19:48:07.855Z,101703.44
2023-02-19T19:50:35.054Z,101702.53
2023-02-19T19:53:03.593Z,101705.13
2023-02-19T19:55:31.102Z,101700.69
2023-02-19T19:57:58.611Z,101705.03
2023-02-19T20:00:25.928Z,101707.66
2023-02-19T20:02:53.157Z,101706.75
2023-02-19T20:05:20.791Z,101712.00
2023-02-19T20:07:58.637Z,101706.81
2023-02-19T20:10:25.874Z,101714.56
2023-02-19T20:12:53.099Z,101708.44
2023-02-19T20:15:22.073Z,101717.09
2023-02-19T20:17:49.974Z,101723.13
2023-02-19T20:20:18.129Z,101728.16
2023-02-19T20:22:45.521Z,101727.25
2023-02-19T20:25:12.826Z,101726.38
2023-02-19T20:27:40.061Z,101717.69
2023-02-19T20:30:09.801Z,101728.03
2023-02-19T20:32:38.451Z,101733.25
2023-02-19T20:35:05.805Z,101731.47
2023-02-19T20:37:33.090Z,101729.72
2023-02-19T20:40:02.555Z,101729.66
2023-02-19T20:42:30.158Z,101736.59
2023-02-19T20:45:02.013Z,101740.84
2023-02-19T20:47:30.414Z,101738.28
2023-02-19T20:49:57.831Z,101729.69
2023-02-19T20:52:25.080Z,101740.09
2023-02-19T20:54:56.573Z,101725.41
2023-02-19T20:57:24.400Z,101728.00
2023-02-19T20:59:53.018Z,101722.75
2023-02-19T21:02:24.623Z,101721.03
2023-02-19T21:04:51.896Z,101728.75
2023-02-19T21:07:19.840Z,101735.63
2023-02-19T21:09:47.049Z,101744.34
2023-02-19T21:12:14.577Z,101744.34
2023-02-19T21:14:41.998Z,101744.28
2023-02-19T21:17:12.636Z,101731.28
2023-02-19T21:19:40.447Z,101728.69
2023-02-19T21:22:09.031Z,101729.47
2023-02-19T21:24:36.331Z,101719.13
2023-02-19T21:27:07.133Z,101714.81
2023-02-19T21:29:36.609Z,101715.66
2023-02-19T21:32:03.977Z,101705.22
2023-02-19T21:34:32.404Z,101697.38
2023-02-19T21:36:59.892Z,101700.78
2023-02-19T21:39:28.043Z,101695.66
2023-02-19T21:41:55.320Z,101694.72
2023-02-19T21:44:22.789Z,101686.94
2023-02-19T21:46:50.164Z,101685.28
2023-02-19T21:49:18.720Z,101685.34
2023-02-19T21:51:48.601Z,101683.63
2023-02-19T21:54:23.534Z,101683.59
2023-02-19T21:56:52.024Z,101687.16
2023-02-19T21:59:20.780Z,101683.75
2023-02-19T22:01:48.331Z,101670.75
2023-02-19T22:04:17.752Z,101681.25
2023-02-19T22:06:44.996Z,101676.94
2023-02-19T22:09:13.609Z,101672.69
2023-02-19T22:11:41.193Z,101665.75
2023-02-19T22:14:08.985Z,101663.94
2023-02-19T22:16:36.295Z,101664.78
2023-02-19T22:19:03.675Z,101655.19
2023-02-19T22:21:34.921Z,101654.31
2023-02-19T22:24:03.337Z,101642.06
2023-02-19T22:26:35.286Z,101642.00
2023-02-19T22:29:06.917Z,101637.56
2023-02-19T22:31:34.756Z,101641.91
2023-02-19T22:34:02.099Z,101645.38
2023-02-19T22:36:31.145Z,101641.81
2023-02-19T22:38:58.450Z,101644.41
2023-02-19T22:41:27.255Z,101654.72
2023-02-19T22:43:58.452Z,101646.19
2023-02-19T22:46:30.105Z,101659.25
2023-02-19T22:48:58.222Z,101656.63
2023-02-19T22:51:25.622Z,101661.94
2023-02-19T22:53:56.315Z,101667.09
2023-02-19T22:56:25.914Z,101661.97
2023-02-19T22:58:54.140Z,101667.19
2023-02-19T23:01:23.126Z,101662.88
2023-02-19T23:03:57.336Z,101662.84
2023-02-19T23:06:33.102Z,101658.47
2023-02-19T23:09:08.506Z,101648.91
2023-02-19T23:11:39.402Z,101667.97
2023-02-19T23:14:07.416Z,101655.88
2023-02-19T23:16:38.081Z,101655.81
2023-02-19T23:19:06.314Z,101652.28
2023-02-19T23:21:34.288Z,101660.00
2023-02-19T23:24:01.576Z,101662.59
2023-02-19T23:26:28.826Z,101663.44
2023-02-19T23:28:56.214Z,101652.09
2023-02-19T23:31:23.842Z,101671.13
2023-02-19T23:33:51.219Z,101658.97
2023-02-19T23:36:18.443Z,101656.41
2023-02-19T23:38:46.617Z,101651.19
2023-02-19T23:41:15.401Z,101663.28
2023-02-19T23:43:42.839Z,101645.97
2023-02-19T23:46:13.892Z,101642.56
2023-02-19T23:48:41.335Z,101639.97
2023-02-19T23:51:08.555Z,101632.97
2023-02-19T23:53:35.793Z,101627.78
2023-02-19T23:56:02.975Z,101627.84
2023-02-19T23:58:30.454Z,101633.06
